Flight Track Log - Related Links

Times and Time Zones

All times are in EDT time to prevent confusion due to time zone crossing. See the N778AN flight status page for this flight to view local times or setup timezone preferences in your user account.

Time Position Orientation Groundspeed Altitude Reporting Facility
EDT Latitude Longitude Course Direction KTS MPH feet Rate Location/Type
Tue 09:08:07 PM -23.4700 -46.4220 131° Southeast 223 257 5,700  Level FlightAware ADS-B
Tue 09:09:22 PM -23.5120 -46.4960 238° Southwest 256 295 7,500 1,448 Climbing FlightAware ADS-B
Tue 09:10:32 PM -23.5680 -46.5730 232° Southwest 308 354 9,200 1,461 Climbing FlightAware ADS-B
Tue 09:11:17 PM -23.6110 -46.6320 231° Southwest 336 387 10,300 1,280 Climbing FlightAware ADS-B
Tue 09:11:47 PM -23.6230 -46.6810 255° West 360 414 10,800 1,200 Climbing FlightAware ADS-B
Tue 09:12:27 PM -23.6110 -46.7560 280° West 385 443 11,700 1,516 Climbing FlightAware ADS-B
Tue 09:13:22 PM -23.5920 -46.8660 281° West 405 466 13,200 1,832 Climbing FlightAware ADS-B
Tue 09:14:02 PM -23.5790 -46.9480 280° West 411 473 14,600 1,976 Climbing FlightAware ADS-B
Tue 09:14:47 PM -23.5640 -47.0350 281° West 418 481 16,000 1,906 Climbing FlightAware ADS-B
Tue 09:15:27 PM -23.5490 -47.1270 280° West 426 490 17,300 1,835 Climbing FlightAware ADS-B
Tue 09:16:12 PM -23.5350 -47.2140 280° West 430 495 18,600 1,976 Climbing FlightAware ADS-B
Tue 09:16:52 PM -23.5200 -47.3030 280° West 432 497 20,100 2,000 Climbing FlightAware ADS-B
Tue 09:17:27 PM -23.5000 -47.3800 286° West 437 503 21,100 1,694 Climbing FlightAware ADS-B
Tue 09:18:17 PM -23.4450 -47.4720 303° West 442 509 22,500 1,533 Climbing FlightAware ADS-B
Tue 09:18:57 PM -23.3940 -47.5460 307° West 455 524 23,400 1,271 Climbing FlightAware ADS-B
Tue 09:19:42 PM -23.3370 -47.6280 307° West 464 534 24,300 1,200 Climbing FlightAware ADS-B
Tue 09:20:22 PM -23.2850 -47.7050 306° West 468 539 25,100 1,200 Climbing FlightAware ADS-B
Tue 09:21:02 PM -23.2320 -47.7820 307° West 477 549 25,900 1,271 Climbing FlightAware ADS-B
Tue 09:21:47 PM -23.1750 -47.8650 307° West 482 555 26,900 1,412 Climbing FlightAware ADS-B
Tue 09:22:27 PM -23.1150 -47.9530 307° West 489 563 27,900 1,412 Climbing FlightAware ADS-B
Tue 09:23:12 PM -23.0530 -48.0440 307° West 485 558 28,900 1,271 Climbing FlightAware ADS-B
Tue 09:23:52 PM -22.9990 -48.1210 307° West 484 557 29,700 776 Climbing FlightAware ADS-B
Tue 09:24:37 PM -22.9400 -48.2070 307° West 483 556 30,000 212 Climbing FlightAware ADS-B
Tue 09:25:17 PM -22.8870 -48.2840 307° West 481 554 30,000  Level FlightAware ADS-B
Tue 09:25:57 PM -22.8340 -48.3600 307° West 479 551 30,000  Level FlightAware ADS-B
Tue 09:26:42 PM -22.7720 -48.4500 307° West 479 551 30,000  Level FlightAware ADS-B
Tue 09:27:22 PM -22.7190 -48.5260 307° West 479 551 30,000  Level FlightAware ADS-B
Tue 09:28:02 PM -22.6660 -48.6030 307° West 480 552 30,000  Level FlightAware ADS-B
Tue 09:28:47 PM -22.6070 -48.6880 307° West 482 555 30,000  Level FlightAware ADS-B
Tue 09:29:27 PM -22.5510 -48.7680 307° West 482 555 30,000  Level FlightAware ADS-B
Tue 09:30:12 PM -22.4920 -48.8530 307° West 484 557 30,000  Level FlightAware ADS-B
Tue 09:30:52 PM -22.4390 -48.9290 307° West 486 559 30,000 141 Level FlightAware ADS-B
Tue 09:31:37 PM -22.3770 -49.0180 307° West 489 563 30,200 706 Climbing FlightAware ADS-B
Tue 09:32:17 PM -22.3200 -49.0970 308° West 488 562 31,000 1,341 Climbing FlightAware ADS-B
Tue 09:33:02 PM -22.2550 -49.1740 312° West 480 552 32,100 1,341 Climbing FlightAware ADS-B
Tue 09:33:42 PM -22.1920 -49.2440 314° West 479 551 32,900 1,275 Climbing FlightAware ADS-B
Tue 09:34:22 PM -22.1310 -49.3130 314° West 470 541 33,800 776 Climbing FlightAware ADS-B
Tue 09:35:07 PM -22.0630 -49.3890 314° West 466 536 34,000 141 Climbing FlightAware ADS-B
Tue 09:35:47 PM -22.0020 -49.4560 314° West 465 535 34,000  Level FlightAware ADS-B
Tue 09:36:32 PM -21.9360 -49.5290 314° West 465 535 34,000  Level FlightAware ADS-B
Tue 09:37:12 PM -21.8790 -49.5930 314° West 465 535 34,000  Level FlightAware ADS-B
Tue 09:37:52 PM -21.8160 -49.6630 314° West 465 535 34,000  Level FlightAware ADS-B
Tue 09:38:37 PM -21.7480 -49.7380 314° West 465 535 34,000  Level FlightAware ADS-B
Tue 09:39:17 PM -21.6870 -49.8060 314° West 465 535 34,000  Level FlightAware ADS-B
Tue 09:40:02 PM -21.6220 -49.8780 314° West 466 536 34,000  Level FlightAware ADS-B
Tue 09:40:42 PM -21.5610 -49.9440 315° West 466 536 34,000  Level FlightAware ADS-B
Tue 09:41:22 PM -21.5000 -50.0120 314° West 464 534 34,000  Level FlightAware ADS-B
Tue 09:42:07 PM -21.4340 -50.0850 314° West 462 532 34,000  Level FlightAware ADS-B
Tue 09:42:47 PM -21.3740 -50.1520 314° West 461 531 34,000  Level FlightAware ADS-B
Tue 09:43:27 PM -21.3150 -50.2170 314° West 460 529 34,000  Level FlightAware ADS-B
Tue 09:44:12 PM -21.2490 -50.2910 314° West 459 528 34,000  Level FlightAware ADS-B
Tue 09:45:07 PM -21.1720 -50.3770 314° West 458 527 34,000  Level FlightAware ADS-B
Tue 09:45:47 PM -21.1170 -50.4370 314° West 455 524 34,000  Level FlightAware ADS-B
Tue 09:46:32 PM -21.0430 -50.5180 314° West 454 522 34,000  Level FlightAware ADS-B
Tue 09:47:27 PM -20.9660 -50.6040 314° West 453 521 34,000  Level FlightAware ADS-B
Tue 09:48:07 PM -20.9090 -50.6670 314° West 451 519 34,000  Level FlightAware ADS-B
Tue 09:48:52 PM -20.8410 -50.7410 315° West 451 519 34,000  Level FlightAware ADS-B
Tue 09:49:47 PM -20.7650 -50.8230 315° West 450 518 34,000  Level FlightAware ADS-B
Tue 09:50:27 PM -20.7160 -50.8780 314° West 450 518 34,000  Level FlightAware ADS-B
Tue 09:51:07 PM -20.6670 -50.9320 314° West 450 518 34,000  Level FlightAware ADS-B
Tue 09:51:47 PM -20.6180 -50.9870 314° West 450 518 34,000  Level FlightAware ADS-B
Tue 09:52:37 PM -20.5560 -51.0550 314° West 450 518 34,000  Level FlightAware ADS-B
Tue 09:53:17 PM -20.5070 -51.1090 314° West 450 518 34,000  Level FlightAware ADS-B
Tue 09:53:57 PM -20.4580 -51.1630 314° West 450 518 34,000  Level FlightAware ADS-B
Tue 09:54:37 PM -20.4090 -51.2180 314° West 450 518 34,000  Level FlightAware ADS-B
Tue 09:55:17 PM -20.3600 -51.2720 314° West 450 518 34,000  Level FlightAware ADS-B
Tue 09:56:07 PM -20.2980 -51.3400 314° West 450 518 34,000  Level FlightAware ADS-B
Tue 09:56:47 PM -20.2490 -51.3940 314° West 450 518 34,000  Level FlightAware ADS-B
Tue 09:57:27 PM -20.2000 -51.4490 314° West 450 518 34,000  Level FlightAware ADS-B
Tue 09:58:07 PM -20.1510 -51.5030 314° West 450 518 34,000  Level FlightAware ADS-B
Tue 09:58:47 PM -20.1010 -51.5570 315° West 450 518 34,000 Level FlightAware ADS-B
Tue 10:01:00 PM -19.8884 -51.7469 320° Northwest  Level Estimated
Tue 10:02:00 PM -19.7924 -51.8325 320° Northwest  Level Estimated
Tue 10:03:00 PM -19.6964 -51.9179 320° Northwest  Level Estimated
Tue 10:04:00 PM -19.6003 -52.0032 320° Northwest  Level Estimated
Tue 10:05:00 PM -19.5042 -52.0884 320° Northwest  Level Estimated
Tue 10:06:00 PM -19.4080 -52.1735 320° Northwest  Level Estimated
Tue 10:07:00 PM -19.3118 -52.2585 320° Northwest  Level Estimated
Tue 10:08:00 PM -19.2156 -52.3434 320° Northwest  Level Estimated
Tue 10:09:00 PM -19.1194 -52.4282 320° Northwest  Level Estimated
Tue 10:10:00 PM -19.0231 -52.5129 320° Northwest  Level Estimated
Tue 10:11:00 PM -18.9267 -52.5975 320° Northwest  Level Estimated
Tue 10:12:00 PM -18.8303 -52.6820 320° Northwest  Level Estimated
Tue 10:13:00 PM -18.7339 -52.7665 320° Northwest  Level Estimated
Tue 10:14:00 PM -18.6375 -52.8508 320° Northwest  Level Estimated
Tue 10:15:00 PM -18.5410 -52.9350 320° Northwest  Level Estimated
Tue 10:16:00 PM -18.4444 -53.0191 320° Northwest  Level Estimated
Tue 10:17:00 PM -18.3479 -53.1032 320° Northwest  Level Estimated
Tue 10:18:00 PM -18.2513 -53.1871 320° Northwest  Level Estimated
Tue 10:19:00 PM -18.1546 -53.2710 320° Northwest  Level Estimated
Tue 10:20:00 PM -18.0579 -53.3547 321° Northwest  Level Estimated
Tue 10:21:00 PM -17.9612 -53.4384 321° Northwest  Level Estimated
Tue 10:22:00 PM -17.8645 -53.5219 321° Northwest  Level Estimated
Tue 10:23:00 PM -17.7677 -53.6054 321° Northwest  Level Estimated
Tue 10:24:00 PM -17.6709 -53.6888 321° Northwest  Level Estimated
Tue 10:25:00 PM -17.5740 -53.7721 321° Northwest  Level Estimated
Tue 10:26:00 PM -17.4771 -53.8553 321° Northwest  Level Estimated
Tue 10:27:00 PM -17.3802 -53.9384 321° Northwest  Level Estimated
Tue 10:28:00 PM -17.2833 -54.0215 321° Northwest  Level Estimated
Tue 10:29:00 PM -17.1863 -54.1044 321° Northwest  Level Estimated
Tue 10:30:00 PM -17.0893 -54.1873 321° Northwest  Level Estimated
Tue 10:31:00 PM -16.9922 -54.2701 321° Northwest  Level Estimated
Tue 10:32:00 PM -16.8951 -54.3527 321° Northwest  Level Estimated
Tue 10:33:00 PM -16.7980 -54.4353 321° Northwest  Level Estimated
Tue 10:34:00 PM -16.7008 -54.5179 321° Northwest  Level Estimated
Tue 10:35:00 PM -16.6036 -54.6003 321° Northwest  Level Estimated
Tue 10:36:00 PM -16.5064 -54.6826 321° Northwest  Level Estimated
Tue 10:37:00 PM -16.4091 -54.7649 321° Northwest  Level Estimated
Tue 10:38:00 PM -16.3118 -54.8471 321° Northwest  Level Estimated
Tue 10:39:00 PM -16.2145 -54.9292 321° Northwest  Level Estimated
Tue 10:40:00 PM -16.1172 -55.0112 321° Northwest  Level Estimated
Tue 10:41:00 PM -16.0198 -55.0932 321° Northwest  Level Estimated
Tue 10:42:00 PM -15.9224 -55.1750 321° Northwest  Level Estimated
Tue 10:43:00 PM -15.8249 -55.2568 321° Northwest  Level Estimated
Tue 10:44:00 PM -15.7275 -55.3385 321° Northwest  Level Estimated
Tue 10:45:00 PM -15.6299 -55.4201 321° Northwest  Level Estimated
Tue 10:46:00 PM -15.5324 -55.5017 321° Northwest  Level Estimated
Tue 10:47:00 PM -15.4348 -55.5831 321° Northwest  Level Estimated
Tue 10:48:00 PM -15.3372 -55.6646 321° Northwest  Level Estimated
Tue 10:49:00 PM -15.2396 -55.7459 321° Northwest  Level Estimated
Tue 10:50:00 PM -15.1420 -55.8271 321° Northwest  Level Estimated
Tue 10:51:00 PM -15.0443 -55.9083 321° Northwest  Level Estimated
Tue 10:52:00 PM -14.9466 -55.9894 321° Northwest  Level Estimated
Tue 10:53:00 PM -14.8488 -56.0704 321° Northwest  Level Estimated
Tue 10:54:00 PM -14.7511 -56.1513 321° Northwest  Level Estimated
Tue 10:55:00 PM -14.6533 -56.2322 321° Northwest  Level Estimated
Tue 10:56:00 PM -14.5554 -56.3130 321° Northwest  Level Estimated
Tue 10:57:00 PM -14.4576 -56.3937 321° Northwest  Level Estimated
Tue 10:58:00 PM -14.3597 -56.4744 321° Northwest  Level Estimated
Tue 10:59:00 PM -14.2618 -56.5550 321° Northwest  Level Estimated
Tue 11:00:00 PM -14.1639 -56.6355 321° Northwest  Level Estimated
Tue 11:01:00 PM -14.0659 -56.7160 321° Northwest  Level Estimated
Tue 11:02:00 PM -13.9679 -56.7963 321° Northwest  Level Estimated
Tue 11:03:00 PM -13.8699 -56.8767 321° Northwest  Level Estimated
Tue 11:04:00 PM -13.7719 -56.9569 322° Northwest  Level Estimated
Tue 11:05:00 PM -13.6738 -57.0371 322° Northwest  Level Estimated
Tue 11:06:00 PM -13.5757 -57.1172 322° Northwest  Level Estimated
Tue 11:07:00 PM -13.4776 -57.1972 322° Northwest  Level Estimated
Tue 11:08:00 PM -13.3794 -57.2772 322° Northwest  Level Estimated
Tue 11:09:00 PM -13.2813 -57.3571 322° Northwest  Level Estimated
Tue 11:10:00 PM -13.1831 -57.4370 322° Northwest  Level Estimated
Tue 11:11:00 PM -13.0849 -57.5167 322° Northwest  Level Estimated
Tue 11:12:00 PM -12.9866 -57.5965 322° Northwest  Level Estimated
Tue 11:13:00 PM -12.8883 -57.6761 322° Northwest  Level Estimated
Tue 11:14:00 PM -12.7901 -57.7557 322° Northwest  Level Estimated
Tue 11:15:00 PM -12.6917 -57.8353 322° Northwest  Level Estimated
Tue 11:16:00 PM -12.5934 -57.9147 322° Northwest  Level Estimated
Tue 11:17:00 PM -12.4951 -57.9941 322° Northwest  Level Estimated
Tue 11:18:00 PM -12.3967 -58.0735 322° Northwest  Level Estimated
Tue 11:19:00 PM -12.2983 -58.1528 322° Northwest  Level Estimated
Tue 11:20:00 PM -12.1998 -58.2320 322° Northwest  Level Estimated
Tue 11:21:00 PM -12.1014 -58.3112 322° Northwest  Level Estimated
Tue 11:22:00 PM -12.0029 -58.3903 322° Northwest  Level Estimated
Tue 11:23:00 PM -11.9044 -58.4693 322° Northwest  Level Estimated
Tue 11:24:00 PM -11.8059 -58.5483 322° Northwest  Level Estimated
Tue 11:25:00 PM -11.7081 -58.6266 322° Northwest  Level Estimated
Tue 11:26:00 PM -11.6104 -58.7048 322° Northwest  Level Estimated
Tue 11:27:00 PM -11.5126 -58.7830 322° Northwest  Level Estimated
Tue 11:28:00 PM -11.4149 -58.8611 322° Northwest  Level Estimated
Tue 11:29:00 PM -11.3171 -58.9392 322° Northwest  Level Estimated
Tue 11:30:00 PM -11.2192 -59.0172 322° Northwest  Level Estimated
Tue 11:31:00 PM -11.1214 -59.0952 322° Northwest  Level Estimated
Tue 11:32:00 PM -11.0236 -59.1731 322° Northwest  Level Estimated
Tue 11:33:00 PM -10.9257 -59.2509 322° Northwest  Level Estimated
Tue 11:34:00 PM -10.8278 -59.3287 322° Northwest  Level Estimated
Tue 11:35:00 PM -10.7298 -59.4065 322° Northwest  Level Estimated
Tue 11:36:00 PM -10.6319 -59.4842 322° Northwest  Level Estimated
Tue 11:37:00 PM -10.5339 -59.5618 322° Northwest  Level Estimated
Tue 11:38:00 PM -10.4360 -59.6394 322° Northwest  Level Estimated
Tue 11:39:00 PM -10.3380 -59.7170 322° Northwest  Level Estimated
Tue 11:40:00 PM -10.2400 -59.7945 322° Northwest  Level Estimated
Tue 11:41:00 PM -10.1419 -59.8719 322° Northwest  Level Estimated
Tue 11:42:00 PM -10.0439 -59.9493 322° Northwest  Level Estimated
Tue 11:43:00 PM -9.9458 -60.0267 322° Northwest  Level Estimated
Tue 11:44:00 PM -9.8477 -60.1040 322° Northwest  Level Estimated
Tue 11:45:00 PM -9.7496 -60.1813 322° Northwest  Level Estimated
Tue 11:46:00 PM -9.6515 -60.2585 322° Northwest  Level Estimated
Tue 11:47:00 PM -9.5534 -60.3357 322° Northwest  Level Estimated
Tue 11:48:00 PM -9.4552 -60.4128 322° Northwest  Level Estimated
Tue 11:49:00 PM -9.3570 -60.4899 322° Northwest  Level Estimated
Tue 11:50:00 PM -9.2588 -60.5670 322° Northwest  Level Estimated
Tue 11:51:00 PM -9.1606 -60.6440 322° Northwest  Level Estimated
Tue 11:52:00 PM -9.0624 -60.7209 322° Northwest  Level Estimated
Tue 11:53:00 PM -8.9642 -60.7978 322° Northwest  Level Estimated
Tue 11:54:00 PM -8.8659 -60.8747 322° Northwest  Level Estimated
Tue 11:55:00 PM -8.7676 -60.9516 322° Northwest  Level Estimated
Tue 11:56:00 PM -8.6694 -61.0284 322° Northwest  Level Estimated
Tue 11:57:00 PM -8.5711 -61.1051 322° Northwest  Level Estimated
Tue 11:58:00 PM -8.4727 -61.1818 322° Northwest  Level Estimated
Tue 11:59:00 PM -8.3744 -61.2585 322° Northwest  Level Estimated
Wed 12:00:00 AM -8.2761 -61.3352 322° Northwest  Level Estimated
Wed 12:01:00 AM -8.1777 -61.4118 322° Northwest  Level Estimated
Wed 12:02:00 AM -8.0793 -61.4883 322° Northwest  Level Estimated
Wed 12:03:00 AM -7.9809 -61.5648 322° Northwest  Level Estimated
Wed 12:04:00 AM -7.8825 -61.6413 322° Northwest  Level Estimated
Wed 12:05:00 AM -7.7841 -61.7178 322° Northwest  Level Estimated
Wed 12:06:00 AM -7.6857 -61.7942 322° Northwest  Level Estimated
Wed 12:07:00 AM -7.5873 -61.8706 322° Northwest  Level Estimated
Wed 12:08:00 AM -7.4888 -61.9469 322° Northwest  Level Estimated
Wed 12:09:00 AM -7.3903 -62.0232 322° Northwest  Level Estimated
Wed 12:10:00 AM -7.2918 -62.0995 322° Northwest  Level Estimated
Wed 12:11:00 AM -7.1933 -62.1758 322° Northwest  Level Estimated
Wed 12:12:00 AM -7.0948 -62.2520 322° Northwest  Level Estimated
Wed 12:13:00 AM -6.9963 -62.3282 322° Northwest  Level Estimated
Wed 12:14:00 AM -6.8978 -62.4043 323° Northwest  Level Estimated
Wed 12:15:00 AM -6.7992 -62.4804 323° Northwest  Level Estimated
Wed 12:16:00 AM -6.7007 -62.5565 323° Northwest  Level Estimated
Wed 12:17:00 AM -6.6021 -62.6325 323° Northwest  Level Estimated
Wed 12:18:00 AM -6.5035 -62.7086 323° Northwest  Level Estimated
Wed 12:19:00 AM -6.4049 -62.7845 323° Northwest  Level Estimated
Wed 12:20:00 AM -6.3063 -62.8605 323° Northwest  Level Estimated
Wed 12:21:00 AM -6.2077 -62.9364 323° Northwest  Level Estimated
Wed 12:22:00 AM -6.1091 -63.0123 323° Northwest  Level Estimated
Wed 12:23:00 AM -6.0105 -63.0882 323° Northwest  Level Estimated
Wed 12:24:00 AM -5.9118 -63.1641 323° Northwest  Level Estimated
Wed 12:25:00 AM -5.8131 -63.2399 323° Northwest  Level Estimated
Wed 12:26:00 AM -5.7145 -63.3157 323° Northwest  Level Estimated
Wed 12:27:00 AM -5.6158 -63.3915 323° Northwest  Level Estimated
Wed 12:28:00 AM -5.5171 -63.4672 323° Northwest  Level Estimated
Wed 12:29:00 AM -5.4184 -63.5429 323° Northwest  Level Estimated
Wed 12:30:00 AM -5.3197 -63.6186 323° Northwest  Level Estimated
Wed 12:31:00 AM -5.2210 -63.6943 323° Northwest  Level Estimated
Wed 12:32:00 AM -5.1223 -63.7699 323° Northwest  Level Estimated
Wed 12:33:00 AM -5.0236 -63.8456 323° Northwest  Level Estimated
Wed 12:34:00 AM -4.9248 -63.9212 323° Northwest  Level Estimated
Wed 12:35:00 AM -4.8261 -63.9967 323° Northwest  Level Estimated
Wed 12:36:00 AM -4.7273 -64.0723 323° Northwest  Level Estimated
Wed 12:37:00 AM -4.6285 -64.1478 323° Northwest  Level Estimated
Wed 12:38:00 AM -4.5298 -64.2233 323° Northwest  Level Estimated
Wed 12:39:00 AM -4.4310 -64.2988 323° Northwest  Level Estimated
Wed 12:40:00 AM -4.3322 -64.3743 323° Northwest  Level Estimated
Wed 12:41:00 AM -4.2334 -64.4498 323° Northwest  Level Estimated
Wed 12:42:00 AM -4.1346 -64.5252 323° Northwest  Level Estimated
Wed 12:43:00 AM -4.0358 -64.6006 323° Northwest  Level Estimated
Wed 12:44:00 AM -3.9370 -64.6760 323° Northwest  Level Estimated
Wed 12:45:00 AM -3.8381 -64.7514 323° Northwest  Level Estimated
Wed 12:46:00 AM -3.7393 -64.8267 323° Northwest  Level Estimated
Wed 12:47:00 AM -3.6405 -64.9021 323° Northwest  Level Estimated
Wed 12:48:00 AM -3.5416 -64.9774 323° Northwest  Level Estimated
Wed 12:49:00 AM -3.4428 -65.0527 323° Northwest  Level Estimated
Wed 12:50:00 AM -3.3439 -65.1280 323° Northwest  Level Estimated
Wed 12:51:00 AM -3.2450 -65.2033 323° Northwest  Level Estimated
Wed 12:52:00 AM -3.1462 -65.2786 323° Northwest  Level Estimated
Wed 12:53:00 AM -3.0473 -65.3538 323° Northwest  Level Estimated
Wed 12:54:00 AM -2.9484 -65.4290 323° Northwest  Level Estimated
Wed 12:55:00 AM -2.8496 -65.5043 323° Northwest  Level Estimated
Wed 12:56:00 AM -2.7507 -65.5795 323° Northwest  Level Estimated
Wed 12:57:00 AM -2.6518 -65.6547 323° Northwest  Level Estimated
Wed 12:58:00 AM -2.5529 -65.7299 323° Northwest  Level Estimated
Wed 12:59:00 AM -2.4540 -65.8051 323° Northwest  Level Estimated
Wed 01:00:00 AM -2.3551 -65.8802 323° Northwest  Level Estimated
Wed 01:01:00 AM -2.2562 -65.9554 323° Northwest  Level Estimated
Wed 01:02:00 AM -2.1572 -66.0305 323° Northwest  Level Estimated
Wed 01:03:00 AM -2.0583 -66.1056 323° Northwest  Level Estimated
Wed 01:04:00 AM -1.9594 -66.1807 323° Northwest  Level Estimated
Wed 01:05:00 AM -1.8605 -66.2559 323° Northwest  Level Estimated
Wed 01:06:00 AM -1.7615 -66.3310 323° Northwest  Level Estimated
Wed 01:07:00 AM -1.6626 -66.4061 323° Northwest  Level Estimated
Wed 01:08:00 AM -1.5637 -66.4812 323° Northwest  Level Estimated
Wed 01:09:00 AM -1.4648 -66.5563 323° Northwest  Level Estimated
Wed 01:10:00 AM -1.3658 -66.6313 323° Northwest  Level Estimated
Wed 01:11:00 AM -1.2669 -66.7064 323° Northwest  Level Estimated
Wed 01:12:00 AM -1.1679 -66.7815 323° Northwest  Level Estimated
Wed 01:13:00 AM -1.0690 -66.8565 323° Northwest  Level Estimated
Wed 01:14:00 AM -0.9700 -66.9316 323° Northwest  Level Estimated
Wed 01:15:00 AM -0.8711 -67.0066 323° Northwest  Level Estimated
Wed 01:16:00 AM -0.7721 -67.0817 323° Northwest  Level Estimated
Wed 01:17:00 AM -0.6732 -67.1567 323° Northwest  Level Estimated
Wed 01:18:00 AM -0.5742 -67.2318 323° Northwest  Level Estimated
Wed 01:19:00 AM -0.4753 -67.3068 323° Northwest  Level Estimated
Wed 01:20:00 AM -0.3763 -67.3819 323° Northwest  Level Estimated
Wed 01:21:00 AM -0.2774 -67.4569 323° Northwest  Level Estimated
Wed 01:22:00 AM -0.1784 -67.5319 323° Northwest  Level Estimated
Wed 01:23:00 AM -0.0794 -67.6069 323° Northwest  Level Estimated
Wed 01:24:00 AM 0.0195 -67.6820 323° Northwest  Level Estimated
Wed 01:25:00 AM 0.1185 -67.7570 323° Northwest  Level Estimated
Wed 01:26:00 AM 0.2174 -67.8320 323° Northwest  Level Estimated
Wed 01:27:00 AM 0.3164 -67.9071 323° Northwest  Level Estimated
Wed 01:28:00 AM 0.4153 -67.9821 323° Northwest  Level Estimated
Wed 01:29:00 AM 0.5143 -68.0571 323° Northwest  Level Estimated
Wed 01:30:00 AM 0.6133 -68.1322 323° Northwest  Level Estimated
Wed 01:31:00 AM 0.7120 -68.2071 323° Northwest  Level Estimated
Wed 01:32:00 AM 0.8108 -68.2820 323° Northwest  Level Estimated
Wed 01:33:00 AM 0.9096 -68.3569 323° Northwest  Level Estimated
Wed 01:34:00 AM 1.0084 -68.4319 323° Northwest  Level Estimated
Wed 01:35:00 AM 1.1072 -68.5068 323° Northwest  Level Estimated
Wed 01:36:00 AM 1.2060 -68.5817 323° Northwest  Level Estimated
Wed 01:37:00 AM 1.3047 -68.6567 323° Northwest  Level Estimated
Wed 01:38:00 AM 1.4035 -68.7316 323° Northwest  Level Estimated
Wed 01:39:00 AM 1.5023 -68.8066 323° Northwest  Level Estimated
Wed 01:40:00 AM 1.6011 -68.8815 323° Northwest  Level Estimated
Wed 01:41:00 AM 1.6998 -68.9565 323° Northwest  Level Estimated
Wed 01:42:00 AM 1.7984 -69.0313 323° Northwest  Level Estimated
Wed 01:43:00 AM 1.8970 -69.1062 323° Northwest  Level Estimated
Wed 01:44:00 AM 1.9956 -69.1811 323° Northwest  Level Estimated
Wed 01:45:00 AM 2.0942 -69.2560 323° Northwest  Level Estimated
Wed 01:46:00 AM 2.1928 -69.3308 323° Northwest  Level Estimated
Wed 01:47:00 AM 2.2914 -69.4057 323° Northwest  Level Estimated
Wed 01:48:00 AM 2.3900 -69.4807 323° Northwest  Level Estimated
Wed 01:49:00 AM 2.4885 -69.5556 323° Northwest  Level Estimated
Wed 01:50:00 AM 2.5871 -69.6305 323° Northwest  Level Estimated
Wed 01:51:00 AM 2.6857 -69.7055 323° Northwest  Level Estimated
Wed 01:52:00 AM 2.7842 -69.7804 323° Northwest  Level Estimated
Wed 01:53:00 AM 2.8828 -69.8554 323° Northwest  Level Estimated
Wed 01:54:00 AM 2.9813 -69.9303 323° Northwest  Level Estimated
Wed 01:55:00 AM 3.0799 -70.0053 323° Northwest  Level Estimated
Wed 01:56:00 AM 3.1784 -70.0803 323° Northwest  Level Estimated
Wed 01:57:00 AM 3.2770 -70.1553 323° Northwest  Level Estimated
Wed 01:58:00 AM 3.3755 -70.2304 323° Northwest  Level Estimated
Wed 01:59:00 AM 3.4740 -70.3054 323° Northwest  Level Estimated
Wed 02:00:00 AM 3.5725 -70.3805 323° Northwest  Level Estimated
Wed 02:01:00 AM 3.6710 -70.4556 323° Northwest  Level Estimated
Wed 02:02:00 AM 3.7696 -70.5307 323° Northwest  Level Estimated
Wed 02:03:00 AM 3.8681 -70.6058 323° Northwest  Level Estimated
Wed 02:04:00 AM 3.9665 -70.6809 323° Northwest  Level Estimated
Wed 02:05:00 AM 4.0650 -70.7561 323° Northwest  Level Estimated
Wed 02:06:00 AM 4.1635 -70.8312 323° Northwest  Level Estimated
Wed 02:07:00 AM 4.2620 -70.9064 323° Northwest  Level Estimated
Wed 02:08:00 AM 4.3604 -70.9816 323° Northwest  Level Estimated
Wed 02:09:00 AM 4.4589 -71.0569 323° Northwest  Level Estimated
Wed 02:10:00 AM 4.5574 -71.1321 323° Northwest  Level Estimated
Wed 02:11:00 AM 4.6558 -71.2074 323° Northwest  Level Estimated
Wed 02:12:00 AM 4.7542 -71.2827 323° Northwest  Level Estimated
Wed 02:13:00 AM 4.8527 -71.3580 323° Northwest  Level Estimated
Wed 02:14:00 AM 4.9511 -71.4333 323° Northwest  Level Estimated
Wed 02:15:00 AM 5.0495 -71.5087 323° Northwest  Level Estimated
Wed 02:16:00 AM 5.1479 -71.5840 323° Northwest  Level Estimated
Wed 02:17:00 AM 5.2463 -71.6594 323° Northwest  Level Estimated
Wed 02:18:00 AM 5.3446 -71.7349 323° Northwest  Level Estimated
Wed 02:19:00 AM 5.4430 -71.8103 323° Northwest  Level Estimated
Wed 02:20:00 AM 5.5414 -71.8858 323° Northwest  Level Estimated
Wed 02:21:00 AM 5.6397 -71.9613 323° Northwest  Level Estimated
Wed 02:22:00 AM 5.7381 -72.0368 323° Northwest  Level Estimated
Wed 02:23:00 AM 5.8364 -72.1124 323° Northwest  Level Estimated
Wed 02:24:00 AM 5.9349 -72.1880 323° Northwest  Level Estimated
Wed 02:25:00 AM 6.0334 -72.2638 323° Northwest  Level Estimated
Wed 02:26:00 AM 6.1318 -72.3395 323° Northwest  Level Estimated
Wed 02:27:00 AM 6.2303 -72.4153 323° Northwest  Level Estimated
Wed 02:28:00 AM 6.3288 -72.4911 323° Northwest  Level Estimated
Wed 02:29:00 AM 6.4272 -72.5670 323° Northwest  Level Estimated
Wed 02:30:00 AM 6.5256 -72.6428 323° Northwest  Level Estimated
Wed 02:31:00 AM 6.6240 -72.7187 323° Northwest  Level Estimated
Wed 02:32:00 AM 6.7224 -72.7947 323° Northwest  Level Estimated
Wed 02:33:00 AM 6.8208 -72.8706 323° Northwest  Level Estimated
Wed 02:34:00 AM 6.9192 -72.9466 323° Northwest  Level Estimated
Wed 02:35:00 AM 7.0176 -73.0227 323° Northwest  Level Estimated
Wed 02:36:00 AM 7.1159 -73.0987 323° Northwest  Level Estimated
Wed 02:37:00 AM 7.2143 -73.1748 322° Northwest  Level Estimated
Wed 02:38:00 AM 7.3126 -73.2509 322° Northwest  Level Estimated
Wed 02:39:00 AM 7.4109 -73.3271 322° Northwest  Level Estimated
Wed 02:40:00 AM 7.5092 -73.4033 322° Northwest  Level Estimated
Wed 02:41:00 AM 7.6075 -73.4795 322° Northwest  Level Estimated
Wed 02:42:00 AM 7.7058 -73.5557 322° Northwest  Level Estimated
Wed 02:43:00 AM 7.8040 -73.6320 322° Northwest  Level Estimated
Wed 02:44:00 AM 7.9023 -73.7084 322° Northwest  Level Estimated
Wed 02:45:00 AM 8.0005 -73.7848 322° Northwest  Level Estimated
Wed 02:46:00 AM 8.0987 -73.8612 322° Northwest  Level Estimated
Wed 02:47:00 AM 8.1969 -73.9376 322° Northwest  Level Estimated
Wed 02:48:00 AM 8.2951 -74.0141 322° Northwest  Level Estimated
Wed 02:49:00 AM 8.3933 -74.0906 322° Northwest  Level Estimated
Wed 02:49:07 AM 9.7380 -76.2850 322° Northwest 488 562 36,000  Level FlightAware ADS-B
Wed 02:50:00 AM 8.4915 -74.1672 322° Northwest  Level Estimated
Wed 02:50:02 AM 9.8440 -76.3810 318° Northwest 488 562 36,000  Level FlightAware ADS-B
Wed 02:50:47 AM 9.9200 -76.4510 318° Northwest 488 562 36,000  Level FlightAware ADS-B
Wed 02:51:27 AM 9.9880 -76.5140 318° Northwest 488 562 36,000  Level FlightAware ADS-B
Wed 02:52:12 AM 10.0640 -76.5850 317° Northwest 487 560 36,000  Level FlightAware ADS-B
Wed 02:52:52 AM 10.1270 -76.6430 318° Northwest 486 559 36,000  Level FlightAware ADS-B
Wed 02:53:32 AM 10.1980 -76.7080 318° Northwest 486 559 36,000  Level FlightAware ADS-B
Wed 02:54:22 AM 10.2750 -76.7800 317° Northwest 484 557 36,000  Level FlightAware ADS-B
Wed 02:54:57 AM 10.3360 -76.8370 317° Northwest 483 556 36,000  Level FlightAware ADS-B
Wed 02:55:42 AM 10.4160 -76.9110 318° Northwest 481 554 36,000  Level FlightAware ADS-B
Wed 02:56:17 AM 10.4710 -76.9620 318° Northwest 486 559 36,000  Level FlightAware ADS-B
Wed 02:57:07 AM 10.5550 -77.0410 317° Northwest 485 558 36,000  Level FlightAware ADS-B
Wed 02:57:52 AM 10.6230 -77.1040 318° Northwest 485 558 36,000  Level FlightAware ADS-B
Wed 02:58:22 AM 10.6760 -77.1530 318° Northwest 484 557 36,000  Level FlightAware ADS-B
Wed 02:59:07 AM 10.7420 -77.2160 317° Northwest 484 557 36,000  Level FlightAware ADS-B
Wed 02:59:57 AM 10.8390 -77.3050 318° Northwest 479 551 36,000  Level FlightAware ADS-B
Wed 03:00:37 AM 10.8870 -77.3510 317° Northwest 480 552 36,000  Level FlightAware ADS-B
Wed 03:01:17 AM 10.9420 -77.4030 317° Northwest 480 552 36,000  Level FlightAware ADS-B
Wed 03:01:52 AM 11.0190 -77.4630 323° Northwest 470 541 36,000  Level FlightAware ADS-B
Wed 03:02:37 AM 11.0890 -77.5210 321° Northwest 470 541 36,000  Level FlightAware ADS-B
Wed 03:03:27 AM 11.1610 -77.5800 321° Northwest 470 541 36,000  Level FlightAware ADS-B
Wed 03:04:07 AM 11.2180 -77.6280 320° Northwest 470 541 36,000  Level FlightAware ADS-B
Wed 03:05:32 AM 11.4100 -77.7660 325° Northwest 466 536 36,000  Level FlightAware ADS-B
Wed 03:06:27 AM 11.4990 -77.8370 322° Northwest 467 537 36,000  Level FlightAware ADS-B
Wed 03:07:07 AM 11.5570 -77.8830 322° Northwest 467 537 36,000  Level FlightAware ADS-B
Wed 03:07:47 AM 11.6150 -77.9290 322° Northwest 467 537 36,000  Level FlightAware ADS-B
Wed 03:08:27 AM 11.6730 -77.9750 322° Northwest 467 537 36,000  Level FlightAware ADS-B
Wed 03:09:17 AM 11.7450 -78.0330 322° Northwest 467 537 36,000  Level FlightAware ADS-B
Wed 03:09:57 AM 11.8030 -78.0790 322° Northwest 467 537 36,000  Level FlightAware ADS-B
Wed 03:10:37 AM 11.8610 -78.1250 322° Northwest 467 537 36,000  Level FlightAware ADS-B
Wed 03:11:17 AM 11.9190 -78.1710 322° Northwest 467 537 36,000  Level FlightAware ADS-B
Wed 03:11:57 AM 11.9770 -78.2180 322° Northwest 467 537 36,000  Level FlightAware ADS-B
Wed 03:12:47 AM 12.0490 -78.2750 322° Northwest 467 537 36,000  Level FlightAware ADS-B
Wed 03:13:27 AM 12.1070 -78.3220 322° Northwest 467 537 36,000  Level FlightAware ADS-B
Wed 03:14:07 AM 12.1650 -78.3680 322° Northwest 467 537 36,000  Level FlightAware ADS-B
Wed 03:14:47 AM 12.2230 -78.4140 322° Northwest 467 537 36,000  Level FlightAware ADS-B
Wed 03:15:37 AM 12.2950 -78.4720 322° Northwest 467 537 36,000  Level FlightAware ADS-B
Wed 03:18:00 AM 12.5328 -78.6524 323° Northwest  Level Estimated
Wed 03:19:00 AM 12.6326 -78.7282 323° Northwest  Level Estimated
Wed 03:20:00 AM 12.7323 -78.8040 323° Northwest  Level Estimated
Wed 03:21:00 AM 12.8320 -78.8799 323° Northwest  Level Estimated
Wed 03:22:00 AM 12.9317 -78.9559 323° Northwest  Level Estimated
Wed 03:23:00 AM 13.0314 -79.0319 323° Northwest  Level Estimated
Wed 03:24:00 AM 13.1311 -79.1080 323° Northwest  Level Estimated
Wed 03:25:00 AM 13.2307 -79.1842 323° Northwest  Level Estimated
Wed 03:26:00 AM 13.3303 -79.2604 323° Northwest  Level Estimated
Wed 03:27:00 AM 13.4298 -79.3366 323° Northwest  Level Estimated
Wed 03:28:00 AM 13.5294 -79.4130 323° Northwest  Level Estimated
Wed 03:29:00 AM 13.6289 -79.4894 323° Northwest  Level Estimated
Wed 03:30:00 AM 13.7284 -79.5658 323° Northwest  Level Estimated
Wed 03:31:00 AM 13.8279 -79.6424 323° Northwest  Level Estimated
Wed 03:32:00 AM 13.9274 -79.7190 323° Northwest  Level Estimated
Wed 03:33:00 AM 14.0268 -79.7956 323° Northwest  Level Estimated
Wed 03:34:00 AM 14.1263 -79.8724 323° Northwest  Level Estimated
Wed 03:35:00 AM 14.2256 -79.9492 323° Northwest  Level Estimated
Wed 03:36:00 AM 14.3250 -80.0260 323° Northwest  Level Estimated
Wed 03:37:00 AM 14.4243 -80.1030 323° Northwest  Level Estimated
Wed 03:38:00 AM 14.5237 -80.1800 323° Northwest  Level Estimated
Wed 03:39:00 AM 14.6230 -80.2570 323° Northwest  Level Estimated
Wed 03:40:00 AM 14.7222 -80.3342 323° Northwest  Level Estimated
Wed 03:41:00 AM 14.8216 -80.4115 323° Northwest  Level Estimated
Wed 03:42:00 AM 14.9210 -80.4889 323° Northwest  Level Estimated
Wed 03:43:00 AM 15.0204 -80.5664 323° Northwest  Level Estimated
Wed 03:44:00 AM 15.1197 -80.6440 323° Northwest  Level Estimated
Wed 03:45:00 AM 15.2190 -80.7216 323° Northwest  Level Estimated
Wed 03:46:00 AM 15.3183 -80.7993 323° Northwest  Level Estimated
Wed 03:47:00 AM 15.4175 -80.8771 323° Northwest  Level Estimated
Wed 03:48:00 AM 15.5167 -80.9549 323° Northwest  Level Estimated
Wed 03:49:00 AM 15.6159 -81.0328 323° Northwest  Level Estimated
Wed 03:50:00 AM 15.7151 -81.1108 323° Northwest  Level Estimated
Wed 03:51:00 AM 15.8142 -81.1889 323° Northwest  Level Estimated
Wed 03:52:00 AM 15.9134 -81.2670 323° Northwest  Level Estimated
Wed 03:53:00 AM 16.0124 -81.3453 323° Northwest  Level Estimated
Wed 03:54:00 AM 16.1115 -81.4236 323° Northwest  Level Estimated
Wed 03:55:00 AM 16.2105 -81.5020 323° Northwest  Level Estimated
Wed 03:56:00 AM 16.3095 -81.5804 323° Northwest  Level Estimated
Wed 03:57:00 AM 16.4085 -81.6590 323° Northwest  Level Estimated
Wed 03:58:00 AM 16.5074 -81.7376 323° Northwest  Level Estimated
Wed 03:59:00 AM 16.6063 -81.8163 323° Northwest  Level Estimated
Wed 04:00:00 AM 16.7052 -81.8951 323° Northwest  Level Estimated
Wed 04:01:00 AM 16.8041 -81.9739 323° Northwest  Level Estimated
Wed 04:02:00 AM 16.9029 -82.0529 323° Northwest  Level Estimated
Wed 04:03:00 AM 17.0017 -82.1319 323° Northwest  Level Estimated
Wed 04:04:00 AM 17.1004 -82.2110 323° Northwest  Level Estimated
Wed 04:05:00 AM 17.1992 -82.2902 323° Northwest  Level Estimated
Wed 04:06:00 AM 17.2979 -82.3695 323° Northwest  Level Estimated
Wed 04:07:00 AM 17.3965 -82.4489 322° Northwest  Level Estimated
Wed 04:08:00 AM 17.4952 -82.5283 322° Northwest  Level Estimated
Wed 04:09:00 AM 17.5938 -82.6078 322° Northwest  Level Estimated
Wed 04:10:00 AM 17.6923 -82.6875 322° Northwest  Level Estimated
Wed 04:11:00 AM 17.7909 -82.7672 322° Northwest  Level Estimated
Wed 04:12:00 AM 17.8894 -82.8470 322° Northwest  Level Estimated
Wed 04:13:00 AM 17.9879 -82.9269 322° Northwest  Level Estimated
Wed 04:14:00 AM 18.0863 -83.0068 322° Northwest  Level Estimated
Wed 04:15:00 AM 18.1847 -83.0869 322° Northwest  Level Estimated
Wed 04:16:00 AM 18.2831 -83.1671 322° Northwest  Level Estimated
Wed 04:17:00 AM 18.3814 -83.2473 322° Northwest  Level Estimated
Wed 04:18:00 AM 18.4797 -83.3277 322° Northwest  Level Estimated
Wed 04:19:00 AM 18.5780 -83.4081 322° Northwest  Level Estimated
Wed 04:20:00 AM 18.6762 -83.4886 322° Northwest  Level Estimated
Wed 04:21:00 AM 18.7745 -83.5692 322° Northwest  Level Estimated
Wed 04:22:00 AM 18.8726 -83.6499 322° Northwest  Level Estimated
Wed 04:23:00 AM 18.9708 -83.7308 322° Northwest  Level Estimated
Wed 04:24:00 AM 19.0689 -83.8117 322° Northwest  Level Estimated
Wed 04:25:00 AM 19.1669 -83.8927 322° Northwest  Level Estimated
Wed 04:26:00 AM 19.2650 -83.9738 322° Northwest  Level Estimated
Wed 04:27:00 AM 19.3629 -84.0549 322° Northwest  Level Estimated
Wed 04:28:00 AM 19.4609 -84.1362 322° Northwest  Level Estimated
Wed 04:29:00 AM 19.5588 -84.2176 322° Northwest  Level Estimated
Wed 04:30:00 AM 19.6567 -84.2991 322° Northwest  Level Estimated
Wed 04:31:00 AM 19.7546 -84.3807 322° Northwest  Level Estimated
Wed 04:32:00 AM 19.8524 -84.4624 322° Northwest  Level Estimated
Wed 04:33:00 AM 19.9501 -84.5442 322° Northwest  Level Estimated
Wed 04:34:00 AM 20.0479 -84.6261 322° Northwest  Level Estimated
Wed 04:35:00 AM 20.1456 -84.7081 322° Northwest  Level Estimated
Wed 04:36:00 AM 20.2432 -84.7902 322° Northwest  Level Estimated
Wed 04:37:00 AM 20.3409 -84.8724 322° Northwest  Level Estimated
Wed 04:38:00 AM 20.4384 -84.9547 322° Northwest  Level Estimated
Wed 04:39:00 AM 20.5360 -85.0371 322° Northwest  Level Estimated
Wed 04:40:00 AM 20.6335 -85.1196 322° Northwest  Level Estimated
Wed 04:41:00 AM 20.7310 -85.2022 322° Northwest  Level Estimated
Wed 04:42:00 AM 20.8284 -85.2849 322° Northwest  Level Estimated
Wed 04:43:00 AM 20.9258 -85.3677 322° Northwest  Level Estimated
Wed 04:44:00 AM 21.0231 -85.4507 322° Northwest  Level Estimated
Wed 04:45:00 AM 21.1205 -85.5337 321° Northwest  Level Estimated
Wed 04:46:00 AM 21.2177 -85.6169 321° Northwest  Level Estimated
Wed 04:47:00 AM 21.3150 -85.7001 321° Northwest  Level Estimated
Wed 04:48:00 AM 21.4121 -85.7835 321° Northwest  Level Estimated
Wed 04:49:00 AM 21.5093 -85.8670 321° Northwest  Level Estimated
Wed 04:50:00 AM 21.6064 -85.9506 321° Northwest  Level Estimated
Wed 04:51:00 AM 21.7034 -86.0343 321° Northwest  Level Estimated
Wed 04:52:00 AM 21.8005 -86.1181 321° Northwest  Level Estimated
Wed 04:53:00 AM 21.8974 -86.2021 321° Northwest  Level Estimated
Wed 04:54:00 AM 21.9944 -86.2861 321° Northwest  Level Estimated
Wed 04:55:00 AM 22.0913 -86.3703 321° Northwest  Level Estimated
Wed 04:56:00 AM 22.1881 -86.4546 321° Northwest  Level Estimated
Wed 04:57:00 AM 22.2849 -86.5390 321° Northwest  Level Estimated
Wed 04:58:00 AM 22.3817 -86.6235 321° Northwest  Level Estimated
Wed 04:59:00 AM 22.4786 -86.7082 321° Northwest  Level Estimated
Wed 05:00:00 AM 22.5754 -86.7931 321° Northwest  Level Estimated
Wed 05:01:00 AM 22.6722 -86.8781 321° Northwest  Level Estimated
Wed 05:02:00 AM 22.7755 -86.9691 321° Northwest  Level Estimated
Wed 05:03:00 AM 22.8788 -87.0602 321° Northwest  Level Estimated
Wed 05:04:00 AM 22.9820 -87.1514 321° Northwest  Level Estimated
Wed 05:05:00 AM 23.0852 -87.2427 321° Northwest  Level Estimated
Wed 05:06:00 AM 23.1883 -87.3342 321° Northwest  Level Estimated
Wed 05:07:00 AM 23.2914 -87.4258 321° Northwest  Level Estimated
Wed 05:08:00 AM 23.3944 -87.5176 321° Northwest  Level Estimated
Wed 05:09:00 AM 23.4974 -87.6095 321° Northwest  Level Estimated
Wed 05:10:00 AM 23.6003 -87.7016 321° Northwest  Level Estimated
Wed 05:11:00 AM 23.7032 -87.7938 321° Northwest  Level Estimated
Wed 05:12:00 AM 23.8060 -87.8861 321° Northwest  Level Estimated
Wed 05:13:00 AM 23.9087 -87.9786 321° Northwest  Level Estimated
Wed 05:14:00 AM 24.0114 -88.0713 321° Northwest  Level Estimated
Wed 05:15:00 AM 24.1140 -88.1641 320° Northwest  Level Estimated
Wed 05:16:00 AM 24.2166 -88.2570 320° Northwest  Level Estimated
Wed 05:17:00 AM 24.3192 -88.3501 320° Northwest  Level Estimated
Wed 05:18:00 AM 24.4216 -88.4433 320° Northwest  Level Estimated
Wed 05:19:00 AM 24.5240 -88.5367 320° Northwest  Level Estimated
Wed 05:20:00 AM 24.6264 -88.6303 320° Northwest  Level Estimated
Wed 05:21:00 AM 24.7287 -88.7240 320° Northwest  Level Estimated
Wed 05:22:00 AM 24.8309 -88.8178 320° Northwest  Level Estimated
Wed 05:23:00 AM 24.9331 -88.9118 320° Northwest  Level Estimated
Wed 05:24:00 AM 25.0352 -89.0060 320° Northwest  Level Estimated
Wed 05:25:00 AM 25.1315 -89.0949 320° Northwest  Level Estimated
Wed 05:26:00 AM 25.2276 -89.1840 320° Northwest  Level Estimated
Wed 05:27:00 AM 25.3238 -89.2732 320° Northwest  Level Estimated
Wed 05:28:00 AM 25.4199 -89.3626 320° Northwest  Level Estimated
Wed 05:29:00 AM 25.5159 -89.4521 320° Northwest  Level Estimated
Wed 05:30:00 AM 25.6119 -89.5418 320° Northwest  Level Estimated
Wed 05:31:00 AM 25.7078 -89.6316 320° Northwest  Level Estimated
Wed 05:32:00 AM 25.8036 -89.7215 320° Northwest  Level Estimated
Wed 05:33:00 AM 25.8995 -89.8116 320° Northwest  Level Estimated
Wed 05:34:00 AM 25.9952 -89.9018 320° Northwest  Level Estimated
Wed 05:35:00 AM 26.0909 -89.9922 320° Northwest  Level Estimated
Wed 05:36:00 AM 26.1865 -90.0827 320° Northwest  Level Estimated
Wed 05:37:00 AM 26.2821 -90.1734 320° Northwest  Level Estimated
Wed 05:38:00 AM 26.3776 -90.2642 320° Northwest  Level Estimated
Wed 05:39:00 AM 26.4731 -90.3552 320° Northwest  Level Estimated
Wed 05:40:00 AM 26.5685 -90.4463 320° Northwest  Level Estimated
Wed 05:41:00 AM 26.6639 -90.5376 319° Northwest  Level Estimated
Wed 05:42:00 AM 26.7592 -90.6290 319° Northwest  Level Estimated
Wed 05:43:00 AM 26.8544 -90.7206 319° Northwest  Level Estimated
Wed 05:44:00 AM 26.9496 -90.8123 319° Northwest  Level Estimated
Wed 05:45:00 AM 27.0447 -90.9042 319° Northwest  Level Estimated
Wed 05:46:00 AM 27.1398 -90.9962 319° Northwest  Level Estimated
Wed 05:47:00 AM 27.2348 -91.0884 319° Northwest  Level Estimated
Wed 05:48:00 AM 27.3297 -91.1808 319° Northwest  Level Estimated
Wed 05:49:00 AM 27.4246 -91.2733 319° Northwest  Level Estimated
Wed 05:50:00 AM 27.5194 -91.3660 319° Northwest  Level Estimated
Wed 05:50:11 AM 27.1136 -91.9008 319° Northwest 449 517 36,000  Level Houston Center
Wed 05:51:00 AM 27.6141 -91.4588 319° Northwest  Level Estimated
Wed 05:51:11 AM 27.2175 -91.9803 326° Northwest 453 521 35,900  Level Houston Center
Wed 05:52:00 AM 27.7090 -91.5520 319° Northwest  Level Estimated
Wed 05:52:11 AM 27.3225 -92.0569 327° Northwest 451 519 36,000  Level Houston Center
Wed 05:53:00 AM 27.8038 -91.6453 319° Northwest  Level Estimated
Wed 05:53:11 AM 27.4261 -92.1347 326° Northwest 450 518 35,900  Level Houston Center
Wed 05:54:00 AM 27.8985 -91.7388 319° Northwest  Level Estimated
Wed 05:54:12 AM 27.5300 -92.2128 326° Northwest 449 517 36,000  Level Houston Center
Wed 05:55:00 AM 27.9932 -91.8325 319° Northwest  Level Estimated
Wed 05:55:12 AM 27.6336 -92.2911 326° Northwest 450 518 36,000  Level Houston Center
Wed 05:56:12 AM 27.7378 -92.3700 326° Northwest 449 517 36,000  Level Houston Center
Wed 05:57:12 AM 27.8411 -92.4492 326° Northwest 450 518 36,000  Level Houston Center
Wed 05:58:13 AM 27.9453 -92.5261 327° Northwest 449 517 36,000 -50 Level Houston Center
Wed 05:59:13 AM 28.0475 -92.6075 325° Northwest 449 517 35,900  Descending Houston Center
Wed 06:00:13 AM 28.1514 -92.6850 327° Northwest 449 517 36,000 50 Climbing Houston Center
Wed 06:01:13 AM 28.2544 -92.7667 325° Northwest 452 520 36,000  Level Houston Center
Wed 06:06:44 AM 28.8372 -93.2128 325° Northwest 442 509 36,000  Level FlightAware ADS-B
Wed 06:07:16 AM 28.8905 -93.2542 326° Northwest 441 507 36,000  Level FlightAware ADS-B
Wed 06:07:46 AM 28.9417 -93.2939 326° Northwest 440 506 36,000  Level FlightAware ADS-B
Wed 06:08:17 AM 28.9926 -93.3336 326° Northwest 439 505 36,000  Level FlightAware ADS-B
Wed 06:08:47 AM 29.0433 -93.3731 326° Northwest 439 505 36,000  Level FlightAware ADS-B
Wed 06:09:17 AM 29.0936 -93.4125 326° Northwest 439 505 36,000  Level FlightAware ADS-B
Wed 06:09:47 AM 29.1447 -93.4524 326° Northwest 439 505 36,000  Level FlightAware ADS-B
Wed 06:10:18 AM 29.1956 -93.4923 326° Northwest 439 505 36,000  Level FlightAware ADS-B
Wed 06:10:48 AM 29.2461 -93.5318 326° Northwest 439 505 36,000  Level FlightAware ADS-B
Wed 06:11:18 AM 29.2970 -93.5718 326° Northwest 439 505 36,000  Level FlightAware ADS-B
Wed 06:11:48 AM 29.3475 -93.6113 326° Northwest 439 505 36,000  Level FlightAware ADS-B
Wed 06:12:19 AM 29.3985 -93.6515 326° Northwest 439 505 36,000  Level FlightAware ADS-B
Wed 06:12:49 AM 29.4488 -93.6911 326° Northwest 440 506 36,000  Level FlightAware ADS-B
Wed 06:13:19 AM 29.4996 -93.7312 326° Northwest 441 507 36,000  Level FlightAware ADS-B
Wed 06:13:23 AM 29.5055 -93.7359 325° Northwest 440 506 36,000  Level FlightAware ADS-B
Wed 06:13:49 AM 29.5504 -93.7713 326° Northwest 441 507 36,000  Level FlightAware ADS-B
Wed 06:13:53 AM 29.5561 -93.7759 325° Northwest 441 507 36,000  Level FlightAware ADS-B
Wed 06:14:19 AM 29.6007 -93.8111 326° Northwest 441 507 36,000  Level FlightAware ADS-B
Wed 06:14:28 AM 29.6150 -93.8224 326° Northwest 441 507 36,000  Level FlightAware ADS-B
Wed 06:14:50 AM 29.6516 -93.8514 325° Northwest 441 507 36,000  Level FlightAware ADS-B
Wed 06:14:58 AM 29.6656 -93.8624 326° Northwest 441 507 36,000  Level FlightAware ADS-B
Wed 06:15:20 AM 29.7022 -93.8913 326° Northwest 440 506 36,000  Level FlightAware ADS-B
Wed 06:15:30 AM 29.7196 -93.9052 325° Northwest 441 507 36,000  Level FlightAware ADS-B
Wed 06:15:50 AM 29.7528 -93.9315 325° Northwest 441 507 36,000  Level FlightAware ADS-B
Wed 06:16:01 AM 29.7711 -93.9461 325° Northwest 441 507 36,000  Level FlightAware ADS-B
Wed 06:16:20 AM 29.8032 -93.9717 325° Northwest 442 509 36,000  Level FlightAware ADS-B
Wed 06:16:31 AM 29.8217 -93.9863 326° Northwest 441 507 36,000  Level FlightAware ADS-B
Wed 06:16:50 AM 29.8536 -94.0117 325° Northwest 442 509 36,000  Level FlightAware ADS-B
Wed 06:17:01 AM 29.8728 -94.0270 325° Northwest 442 509 36,000  Level FlightAware ADS-B
Wed 06:17:20 AM 29.9040 -94.0519 325° Northwest 442 509 36,000  Level FlightAware ADS-B
Wed 06:17:32 AM 29.9242 -94.0679 326° Northwest 442 509 36,000  Level FlightAware ADS-B
Wed 06:17:50 AM 29.9548 -94.0923 325° Northwest 441 507 36,000  Level FlightAware ADS-B
Wed 06:18:05 AM 29.9798 -94.1123 325° Northwest 442 509 36,000  Level FlightAware ADS-B
Wed 06:18:20 AM 30.0058 -94.1331 325° Northwest 442 509 36,000  Level FlightAware ADS-B
Wed 06:18:36 AM 30.0320 -94.1541 325° Northwest 442 509 36,000  Level FlightAware ADS-B
Wed 06:18:51 AM 30.0567 -94.1738 325° Northwest 441 507 36,000  Level FlightAware ADS-B
Wed 06:19:11 AM 30.0901 -94.2004 325° Northwest 441 507 36,000  Level FlightAware ADS-B
Wed 06:19:21 AM 30.1073 -94.2143 325° Northwest 441 507 36,000  Level FlightAware ADS-B
Wed 06:19:44 AM 30.1464 -94.2456 325° Northwest 441 507 36,000  Level FlightAware ADS-B
Wed 06:19:51 AM 30.1585 -94.2552 326° Northwest 442 509 36,000  Level FlightAware ADS-B
Wed 06:20:14 AM 30.1969 -94.2861 325° Northwest 442 509 36,000  Level FlightAware ADS-B
Wed 06:20:22 AM 30.2091 -94.2959 325° Northwest 442 509 36,000  Level FlightAware ADS-B
Wed 06:20:44 AM 30.2476 -94.3268 325° Northwest 442 509 36,000  Level FlightAware ADS-B
Wed 06:20:52 AM 30.2600 -94.3368 325° Northwest 442 509 36,000  Level FlightAware ADS-B
Wed 06:21:15 AM 30.2981 -94.3674 325° Northwest 442 509 36,000  Level FlightAware ADS-B
Wed 06:21:22 AM 30.3113 -94.3780 325° Northwest 442 509 36,000  Level FlightAware ADS-B
Wed 06:21:45 AM 30.3495 -94.4089 325° Northwest 442 509 36,000  Level FlightAware ADS-B
Wed 06:21:53 AM 30.3625 -94.4193 325° Northwest 443 510 36,000  Level FlightAware ADS-B
Wed 06:22:15 AM 30.3999 -94.4495 325° Northwest 442 509 36,000  Level FlightAware ADS-B
Wed 06:22:23 AM 30.4132 -94.4602 325° Northwest 442 509 36,000  Level FlightAware ADS-B
Wed 06:22:45 AM 30.4504 -94.4903 325° Northwest 442 509 36,000  Level FlightAware ADS-B
Wed 06:22:53 AM 30.4636 -94.5009 325° Northwest 442 509 36,000  Level FlightAware ADS-B
Wed 06:23:16 AM 30.5010 -94.5310 325° Northwest 441 507 36,000  Level FlightAware ADS-B
Wed 06:23:23 AM 30.5144 -94.5419 325° Northwest 441 507 36,000  Level FlightAware ADS-B
Wed 06:23:47 AM 30.5540 -94.5740 325° Northwest 439 505 36,000  Level FlightAware ADS-B
Wed 06:23:56 AM 30.5691 -94.5863 325° Northwest 439 505 36,000  Level FlightAware ADS-B
Wed 06:24:20 AM 30.6080 -94.6178 325° Northwest 440 506 36,000  Level FlightAware ADS-B
Wed 06:24:26 AM 30.6191 -94.6268 325° Northwest 440 506 36,000  Level FlightAware ADS-B
Wed 06:24:50 AM 30.6579 -94.6584 325° Northwest 440 506 36,000  Level FlightAware ADS-B
Wed 06:24:57 AM 30.6696 -94.6678 325° Northwest 440 506 36,000  Level FlightAware ADS-B
Wed 06:25:20 AM 30.7084 -94.6994 325° Northwest 439 505 36,000  Level FlightAware ADS-B
Wed 06:25:27 AM 30.7200 -94.7089 325° Northwest 439 505 36,000  Level FlightAware ADS-B
Wed 06:25:50 AM 30.7591 -94.7407 325° Northwest 439 505 36,000  Level FlightAware ADS-B
Wed 06:25:57 AM 30.7706 -94.7500 325° Northwest 439 505 36,000  Level FlightAware ADS-B
Wed 06:26:21 AM 30.8107 -94.7827 325° Northwest 439 505 36,000  Level FlightAware ADS-B
Wed 06:26:28 AM 30.8207 -94.7909 325° Northwest 439 505 36,000  Level FlightAware ADS-B
Wed 06:26:53 AM 30.8633 -94.8256 325° Northwest 438 504 36,000  Level FlightAware ADS-B
Wed 06:26:58 AM 30.8709 -94.8319 325° Northwest 438 504 36,000  Level FlightAware ADS-B
Wed 06:27:24 AM 30.9136 -94.8667 325° Northwest 438 504 36,000  Level FlightAware ADS-B
Wed 06:27:28 AM 30.9212 -94.8729 325° Northwest 438 504 36,000  Level FlightAware ADS-B
Wed 06:27:41 AM 30.9429 -94.8911 324° Northwest 436 502 36,000  Level FlightAware ADS-B
Wed 06:28:11 AM 30.9872 -94.9377 318° Northwest 431 496 36,000  Level FlightAware ADS-B
Wed 06:28:12 AM 30.9888 -94.9395 316° Northwest 431 496 36,000  Level FlightAware ADS-B
Wed 06:28:41 AM 31.0310 -94.9857 317° Northwest 433 498 36,000  Level FlightAware ADS-B
Wed 06:28:43 AM 31.0334 -94.9883 317° Northwest 433 498 36,000  Level FlightAware ADS-B
Wed 06:29:05 AM 31.0663 -95.0234 318° Northwest 434 499 36,000  Level FlightAware ADS-B
Wed 06:29:11 AM 31.0756 -95.0331 318° Northwest 435 501 36,000  Level FlightAware ADS-B
Wed 06:29:35 AM 31.1115 -95.0704 318° Northwest 436 502 36,000  Level FlightAware ADS-B
Wed 06:29:42 AM 31.1220 -95.0811 319° Northwest 436 502 36,000  Level FlightAware ADS-B
Wed 06:30:06 AM 31.1574 -95.1175 319° Northwest 435 501 36,000  Level FlightAware ADS-B
Wed 06:30:13 AM 31.1677 -95.1281 319° Northwest 435 501 36,000  Level FlightAware ADS-B
Wed 06:30:36 AM 31.2029 -95.1644 319° Northwest 434 499 36,000  Level FlightAware ADS-B
Wed 06:30:43 AM 31.2136 -95.1752 319° Northwest 434 499 36,000  Level FlightAware ADS-B
Wed 06:31:06 AM 31.2483 -95.2112 318° Northwest 433 498 36,000  Level FlightAware ADS-B
Wed 06:31:13 AM 31.2587 -95.2217 319° Northwest 433 498 36,000  Level FlightAware ADS-B
Wed 06:31:36 AM 31.2936 -95.2582 318° Northwest 434 499 36,000  Level FlightAware ADS-B
Wed 06:31:43 AM 31.3041 -95.2692 318° Northwest 434 499 36,000  Level FlightAware ADS-B
Wed 06:32:07 AM 31.3389 -95.3054 318° Northwest 434 499 36,000  Level FlightAware ADS-B
Wed 06:32:13 AM 31.3491 -95.3160 318° Northwest 434 499 36,000  Level FlightAware ADS-B
Wed 06:32:38 AM 31.3850 -95.3542 318° Northwest 434 499 36,000  Level FlightAware ADS-B
Wed 06:32:43 AM 31.3938 -95.3637 317° Northwest 433 498 36,000  Level FlightAware ADS-B
Wed 06:33:08 AM 31.4297 -95.4021 318° Northwest 434 499 36,000 -176 Level FlightAware ADS-B
Wed 06:33:17 AM 31.4432 -95.4166 318° Northwest 433 498 35,900 -1,000 Descending FlightAware ADS-B
Wed 06:33:38 AM 31.4747 -95.4503 318° Northwest 430 495 35,500 -1,200 Descending FlightAware ADS-B
Wed 06:33:47 AM 31.4874 -95.4638 318° Northwest 428 493 35,300 -1,500 Descending FlightAware ADS-B
Wed 06:34:14 AM 31.5260 -95.5051 318° Northwest 427 491 34,600 -1,600 Descending FlightAware ADS-B
Wed 06:34:17 AM 31.5311 -95.5106 317° Northwest 423 487 34,500 -1,935 Descending FlightAware ADS-B
Wed 06:34:45 AM 31.5721 -95.5543 318° Northwest 420 483 33,600 -1,935 Descending FlightAware ADS-B
Wed 06:34:48 AM 31.5755 -95.5580 317° Northwest 420 483 33,500 -1,059 Descending FlightAware ADS-B
Wed 06:35:19 AM 31.6195 -95.6054 317° Northwest 423 487 33,000 -811 Descending FlightAware ADS-B
Wed 06:35:25 AM 31.6280 -95.6145 318° Northwest 422 486 33,000 -200 Level FlightAware ADS-B
Wed 06:35:49 AM 31.6631 -95.6522 318° Northwest 422 486 32,900 -400 Descending FlightAware ADS-B
Wed 06:35:55 AM 31.6725 -95.6622 318° Northwest 421 484 32,800 -1,742 Descending FlightAware ADS-B
Wed 06:36:20 AM 31.7070 -95.6994 317° Northwest 413 475 32,000 -2,291 Descending FlightAware ADS-B
Wed 06:36:50 AM 31.7488 -95.7442 318° Northwest 399 459 30,700 -2,571 Descending FlightAware ADS-B
Wed 06:36:55 AM 31.7555 -95.7514 318° Northwest 416 479 30,500 -2,903 Descending FlightAware ADS-B
Wed 06:37:21 AM 31.7904 -95.7888 318° Northwest 393 452 29,200 -2,909 Descending FlightAware ADS-B
Wed 06:37:28 AM 31.7996 -95.7987 318° Northwest 416 479 28,900 -2,323 Descending FlightAware ADS-B
Wed 06:37:52 AM 31.8312 -95.8330 317° Northwest 386 444 28,000 -2,500 Descending FlightAware ADS-B
Wed 06:38:28 AM 31.8790 -95.8847 317° Northwest 384 442 26,400 -2,451 Descending FlightAware ADS-B
Wed 06:39:03 AM 31.9235 -95.9331 317° Northwest 373 429 25,100 -2,424 Descending FlightAware ADS-B
Wed 06:40:07 AM 32.0034 -96.0195 317° Northwest 369 425 22,400 -2,316 Descending FlightAware ADS-B
Wed 06:40:57 AM 32.0640 -96.0860 317° Northwest 360 414 20,700 -2,067 Descending FlightAware ADS-B
Wed 06:41:37 AM 32.1120 -96.1380 317° Northwest 354 407 19,300 -2,327 Descending FlightAware ADS-B
Wed 06:41:46 AM 32.1257 -96.1525 318° Northwest 354 407 18,800 -2,372 Descending FlightAware ADS-B
Wed 06:42:20 AM 32.1658 -96.1963 317° Northwest 349 402 17,600 -2,132 Descending FlightAware ADS-B
Wed 06:43:02 AM 32.2110 -96.2480 316° Northwest 344 396 16,100 -2,122 Descending FlightAware ADS-B
Wed 06:43:42 AM 32.2570 -96.3020 315° West 316 364 14,700 -2,471 Descending FlightAware ADS-B
Wed 06:44:27 AM 32.3010 -96.3540 315° West 296 341 12,600 -2,541 Descending FlightAware ADS-B
Wed 06:45:07 AM 32.3380 -96.3980 315° West 270 311 11,100 -1,341 Descending FlightAware ADS-B
Wed 06:45:52 AM 32.3770 -96.4440 315° West 271 312 10,700 -494 Descending FlightAware ADS-B
Wed 06:46:32 AM 32.4110 -96.4880 312° West 266 306 10,400 -943 Descending FlightAware ADS-B
Wed 06:47:02 AM 32.4350 -96.5240 308° West 263 303 9,600 -1,855 Descending FlightAware ADS-B
Wed 06:47:27 AM 32.4530 -96.5510 308° West 261 300 8,700 -2,057 Descending FlightAware ADS-B
Wed 06:47:37 AM 32.4610 -96.5620 311° West 258 297 8,400 -1,867 Descending FlightAware ADS-B
Wed 06:48:12 AM 32.4870 -96.5990 310° West 252 290 7,300 -1,800 Descending FlightAware ADS-B
Wed 06:48:37 AM 32.5070 -96.6270 310° West 249 287 6,600 -1,500 Descending FlightAware ADS-B
Wed 06:48:52 AM 32.5180 -96.6430 309° West 245 282 6,300 -1,200 Descending FlightAware ADS-B
Wed 06:49:17 AM 32.5310 -96.6690 301° West 239 275 5,800 -1,091 Descending FlightAware ADS-B
Wed 06:49:47 AM 32.5490 -96.7040 301° West 232 267 5,300 -1,100 Descending FlightAware ADS-B
Wed 06:50:17 AM 32.5660 -96.7360 302° West 244 281 4,700 -800 Descending FlightAware ADS-B
Wed 06:50:32 AM 32.5760 -96.7530 305° West 241 277 4,700  Level FlightAware ADS-B
Wed 06:50:57 AM 32.5910 -96.7800 303° West 237 273 4,700 -109 Level FlightAware ADS-B
Wed 06:51:27 AM 32.6100 -96.8110 306° West 233 268 4,600 -533 Descending FlightAware ADS-B
Wed 06:51:42 AM 32.6190 -96.8260 305° West 230 265 4,300 -1,050 Descending FlightAware ADS-B
Wed 06:52:07 AM 32.6340 -96.8510 305° West 224 258 3,900 -900 Descending FlightAware ADS-B
Wed 06:52:22 AM 32.6440 -96.8680 305° West 227 261 3,700 -533 Descending FlightAware ADS-B
Wed 06:52:52 AM 32.6610 -96.8970 305° West 233 268 3,500 -873 Descending FlightAware ADS-B
Wed 06:53:17 AM 32.6760 -96.9250 302° West 231 266 2,900 -873 Descending FlightAware ADS-B
Wed 06:53:47 AM 32.6940 -96.9550 305° West 213 245 2,700 -267 Descending FlightAware ADS-B
Wed 06:54:02 AM 32.7020 -96.9690 304° West 199 229 2,700 -750 Level FlightAware ADS-B
Wed 06:54:27 AM 32.7160 -96.9930 305° West 197 227 2,200 -900 Descending FlightAware ADS-B
Wed 06:54:42 AM 32.7230 -97.0050 305° West 189 217 2,100 -400 Descending FlightAware ADS-B
Wed 06:55:12 AM 32.7360 -97.0280 304° West 169 194 1,900 -400 Descending FlightAware ADS-B
Wed 06:55:27 AM 32.7420 -97.0390 303° West 159 183 1,800 -514 Descending FlightAware ADS-B
Wed 06:55:47 AM 32.7520 -97.0490 320° Northwest 140 161 1,600 -300 Descending FlightAware ADS-B
Wed 06:56:07 AM 32.7630 -97.0530 343° North 121 139 1,600 120 Level FlightAware ADS-B
Wed 06:56:37 AM 32.7800 -97.0550 354° North 116 133 1,700 133 Climbing FlightAware ADS-B
Wed 06:56:52 AM 32.7870 -97.0550 360° North 116 133 1,700 -86 Level FlightAware ADS-B
Wed 06:57:47 AM 32.8180 -97.0550 360° North 119 137 1,600 -257 Descending FlightAware ADS-B
Wed 06:58:02 AM 32.8260 -97.0550 360° North 119 137 1,400 -800 Descending FlightAware ADS-B

Login

Don't have an account? Register now (free) for customized features, flight alerts, and more!